createdAt,value
2018-01-10T00:01:18.862Z,93.67
2018-01-10T00:03:46.607Z,93.65
2018-01-10T00:06:14.227Z,93.83
2018-01-10T00:08:41.836Z,93.90
2018-01-10T00:11:09.442Z,94.09
2018-01-10T00:13:37.058Z,94.13
2018-01-10T00:16:04.638Z,94.20
2018-01-10T00:18:32.274Z,94.48
2018-01-10T00:20:59.874Z,94.74
2018-01-10T00:23:27.490Z,94.96
2018-01-10T00:25:55.079Z,95.25
2018-01-10T00:28:22.699Z,95.47
2018-01-10T00:30:50.418Z,95.73
2018-01-10T00:33:18.028Z,95.79
2018-01-10T00:35:45.619Z,95.68
2018-01-10T00:38:13.292Z,95.91
2018-01-10T00:40:40.866Z,95.87
2018-01-10T00:43:08.495Z,96.22
2018-01-10T00:45:36.078Z,96.22
2018-01-10T00:48:03.718Z,96.37
2018-01-10T00:50:31.314Z,96.19
2018-01-10T00:52:58.938Z,96.14
2018-01-10T00:55:26.532Z,96.32
2018-01-10T00:57:54.146Z,96.57
2018-01-10T01:00:21.737Z,96.80
2018-01-10T01:02:49.355Z,97.09
2018-01-10T01:05:16.949Z,97.25
2018-01-10T01:07:44.543Z,97.58
2018-01-10T01:10:12.161Z,97.67
2018-01-10T01:12:39.762Z,97.67
2018-01-10T01:15:07.378Z,97.78
2018-01-10T01:17:35.005Z,97.95
2018-01-10T01:20:02.694Z,98.09
2018-01-10T01:22:30.345Z,98.13
2018-01-10T01:24:57.941Z,98.11
2018-01-10T01:27:25.534Z,98.04
2018-01-10T01:29:53.162Z,97.98
2018-01-10T01:32:20.797Z,97.99
2018-01-10T01:34:48.381Z,98.02
2018-01-10T01:37:16.106Z,97.92
2018-01-10T01:39:43.686Z,97.89
2018-01-10T01:42:11.297Z,97.79
2018-01-10T01:44:39.004Z,97.76
2018-01-10T01:47:06.653Z,97.74
2018-01-10T01:49:34.230Z,97.77
2018-01-10T01:52:01.890Z,97.72
2018-01-10T01:54:29.492Z,97.83
2018-01-10T01:56:57.110Z,97.82
2018-01-10T01:59:24.698Z,97.78
2018-01-10T02:01:52.322Z,97.83
2018-01-10T02:04:19.910Z,97.79
2018-01-10T02:06:47.490Z,97.72
2018-01-10T02:09:15.113Z,97.74
2018-01-10T02:11:42.695Z,97.76
2018-01-10T02:14:10.334Z,97.86
2018-01-10T02:16:38.042Z,97.87
2018-01-10T02:19:05.653Z,97.84
2018-01-10T02:21:33.287Z,97.67
2018-01-10T02:24:00.922Z,97.56
2018-01-10T02:26:28.958Z,97.58
2018-01-10T02:28:56.577Z,97.53
2018-01-10T02:31:24.163Z,97.41
2018-01-10T02:33:51.781Z,97.21
2018-01-10T02:36:19.378Z,97.08
2018-01-10T02:38:47.059Z,97.16
2018-01-10T02:41:14.700Z,97.21
2018-01-10T02:43:42.279Z,97.25
2018-01-10T02:46:09.883Z,97.39
2018-01-10T02:48:37.480Z,97.32
2018-01-10T02:51:05.109Z,97.29
2018-01-10T02:53:32.693Z,97.33
2018-01-10T02:56:00.341Z,97.39
2018-01-10T02:58:28.013Z,97.24
2018-01-10T03:00:55.618Z,97.19
2018-01-10T03:03:23.205Z,97.21
2018-01-10T03:05:50.942Z,97.19
2018-01-10T03:08:18.543Z,97.15
2018-01-10T03:10:46.155Z,97.19
2018-01-10T03:13:13.761Z,97.24
2018-01-10T03:15:41.458Z,97.33
2018-01-10T03:18:09.078Z,97.29
2018-01-10T03:20:36.694Z,97.13
2018-01-10T03:23:04.270Z,97.07
2018-01-10T03:25:31.906Z,96.92
2018-01-10T03:27:59.489Z,96.87
2018-01-10T03:30:27.114Z,96.79
2018-01-10T03:32:54.777Z,96.84
2018-01-10T03:35:22.393Z,96.88
2018-01-10T03:37:49.977Z,96.81
2018-01-10T03:40:17.586Z,96.76
2018-01-10T03:42:45.190Z,96.70
2018-01-10T03:45:12.850Z,96.65
2018-01-10T03:47:40.432Z,96.71
2018-01-10T03:50:08.050Z,96.77
2018-01-10T03:52:35.634Z,96.85
2018-01-10T03:55:03.246Z,96.88
2018-01-10T03:57:30.829Z,96.94
2018-01-10T03:59:58.445Z,96.79
2018-01-10T04:02:26.035Z,96.77
2018-01-10T04:04:53.670Z,96.87
2018-01-10T04:07:21.368Z,96.77
2018-01-10T04:09:48.976Z,96.63
2018-01-10T04:12:16.558Z,96.62
2018-01-10T04:14:44.167Z,96.63
2018-01-10T04:17:11.752Z,96.61
2018-01-10T04:19:39.361Z,96.51
2018-01-10T04:22:07.803Z,96.48
2018-01-10T04:24:35.413Z,96.42
2018-01-10T04:27:02.998Z,96.36
2018-01-10T04:29:30.621Z,96.27
2018-01-10T04:31:58.206Z,96.17
2018-01-10T04:34:25.825Z,96.25
2018-01-10T04:36:53.406Z,96.28
2018-01-10T04:39:21.009Z,96.34
2018-01-10T04:41:48.587Z,96.42
2018-01-10T04:44:16.203Z,96.36
2018-01-10T04:46:43.858Z,96.40
2018-01-10T04:49:11.610Z,96.71
2018-01-10T04:51:39.205Z,96.80
2018-01-10T04:54:06.815Z,96.72
2018-01-10T04:56:34.399Z,96.72
2018-01-10T04:59:02.046Z,96.75
2018-01-10T05:01:29.646Z,96.77
2018-01-10T05:03:57.265Z,96.81
2018-01-10T05:06:24.862Z,96.90
2018-01-10T05:08:52.493Z,96.92
2018-01-10T05:11:20.071Z,97.01
2018-01-10T05:13:47.734Z,96.95
2018-01-10T05:16:15.351Z,96.96
2018-01-10T05:18:42.958Z,96.95
2018-01-10T05:21:10.577Z,96.94
2018-01-10T05:23:38.162Z,96.98
2018-01-10T05:26:05.785Z,97.03
2018-01-10T05:28:33.370Z,97.01
2018-01-10T05:31:00.996Z,96.88
2018-01-10T05:33:28.742Z,96.95
2018-01-10T05:35:56.350Z,96.75
2018-01-10T05:38:23.946Z,96.72
2018-01-10T05:40:51.581Z,96.72
2018-01-10T05:43:19.167Z,96.84
2018-01-10T05:45:46.787Z,96.89
2018-01-10T05:48:14.395Z,97.04
2018-01-10T05:50:42.012Z,97.12
2018-01-10T05:53:09.615Z,97.03
2018-01-10T05:55:37.233Z,96.81
2018-01-10T05:58:04.805Z,96.81
2018-01-10T06:00:32.470Z,96.82
2018-01-10T06:03:00.042Z,96.96
2018-01-10T06:05:27.738Z,97.02
2018-01-10T06:07:55.537Z,97.10
2018-01-10T06:10:23.165Z,96.81
2018-01-10T06:12:50.829Z,97.06
2018-01-10T06:15:18.450Z,97.03
2018-01-10T06:17:46.043Z,97.16
2018-01-10T06:20:13.654Z,96.97
2018-01-10T06:22:41.246Z,97.07
2018-01-10T06:25:08.884Z,97.21
2018-01-10T06:27:36.487Z,97.43
2018-01-10T06:30:04.118Z,96.97
2018-01-10T06:32:31.698Z,97.53
2018-01-10T06:34:59.318Z,97.59
2018-01-10T06:37:26.917Z,97.50
2018-01-10T06:39:54.721Z,97.38
2018-01-10T06:42:22.290Z,97.27
2018-01-10T06:44:49.925Z,96.53
2018-01-10T06:47:17.519Z,96.26
2018-01-10T06:49:45.154Z,96.46
2018-01-10T06:52:13.849Z,96.88
2018-01-10T06:54:41.516Z,97.17
2018-01-10T06:57:09.116Z,97.07
2018-01-10T06:59:36.798Z,96.90
2018-01-10T07:02:04.384Z,96.91
2018-01-10T07:04:32.062Z,96.25
2018-01-10T07:06:59.676Z,95.94
2018-01-10T07:09:27.313Z,95.97
2018-01-10T07:11:54.898Z,96.00
2018-01-10T07:14:22.580Z,95.96
2018-01-10T07:16:50.174Z,95.91
2018-01-10T07:19:17.803Z,95.77
2018-01-10T07:21:45.398Z,95.81
2018-01-10T07:24:13.026Z,95.76
2018-01-10T07:26:40.687Z,95.93
2018-01-10T07:29:08.306Z,95.92
2018-01-10T07:31:35.894Z,96.04
2018-01-10T07:34:03.506Z,96.07
2018-01-10T07:36:31.086Z,96.20
2018-01-10T07:38:58.706Z,96.24
2018-01-10T07:41:26.293Z,96.17
2018-01-10T07:43:53.962Z,96.13
2018-01-10T07:46:21.559Z,96.19
2018-01-10T07:48:49.189Z,96.31
2018-01-10T07:51:16.774Z,96.47
2018-01-10T07:53:44.567Z,96.38
2018-01-10T07:56:12.144Z,96.46
2018-01-10T07:58:39.750Z,96.48
2018-01-10T08:01:07.378Z,96.35
2018-01-10T08:03:34.978Z,96.73
2018-01-10T08:06:02.594Z,96.84
2018-01-10T08:08:30.186Z,96.97
2018-01-10T08:10:57.804Z,97.35
2018-01-10T08:13:25.386Z,97.35
2018-01-10T08:15:52.996Z,97.42
2018-01-10T08:18:20.636Z,97.26
2018-01-10T08:20:48.222Z,97.14
2018-01-10T08:23:15.845Z,96.99
2018-01-10T08:25:43.440Z,97.13
2018-01-10T08:28:11.062Z,96.87
2018-01-10T08:30:38.638Z,96.73
2018-01-10T08:33:06.264Z,96.67
2018-01-10T08:35:33.842Z,97.39
2018-01-10T08:38:01.462Z,97.52
2018-01-10T08:40:29.050Z,97.36
2018-01-10T08:42:56.688Z,97.29
2018-01-10T08:45:24.266Z,97.43
2018-01-10T08:47:51.894Z,97.53
2018-01-10T08:50:19.486Z,97.86
2018-01-10T08:52:47.110Z,98.14
2018-01-10T08:55:14.682Z,98.02
2018-01-10T08:57:42.310Z,98.21
2018-01-10T09:00:09.929Z,98.36
2018-01-10T09:02:37.513Z,98.47
2018-01-10T09:05:05.210Z,98.44
2018-01-10T09:07:32.794Z,98.46
2018-01-10T09:10:00.488Z,98.37
2018-01-10T09:12:28.018Z,98.39
2018-01-10T09:14:55.614Z,98.02
2018-01-10T09:17:23.254Z,97.79
2018-01-10T09:19:50.835Z,97.47
2018-01-10T09:22:18.449Z,97.57
2018-01-10T09:24:46.034Z,97.42
2018-01-10T09:27:13.653Z,97.19
2018-01-10T09:29:41.254Z,97.18
2018-01-10T09:32:08.886Z,97.07
2018-01-10T09:34:36.473Z,96.71
2018-01-10T09:37:04.246Z,95.62
2018-01-10T09:39:31.857Z,94.93
2018-01-10T09:41:59.482Z,94.05
2018-01-10T09:44:27.055Z,93.75
2018-01-10T09:46:54.719Z,93.02
2018-01-10T09:49:22.305Z,92.70
2018-01-10T09:51:49.939Z,91.94
2018-01-10T09:54:17.546Z,91.25
2018-01-10T09:56:45.149Z,91.26
2018-01-10T09:59:12.743Z,91.29
2018-01-10T10:01:40.358Z,90.65
2018-01-10T10:04:07.942Z,90.29
2018-01-10T10:06:35.601Z,88.58
2018-01-10T10:09:03.184Z,89.17
2018-01-10T10:11:30.801Z,89.69
2018-01-10T10:13:58.401Z,89.95
2018-01-10T10:16:26.061Z,89.70
2018-01-10T10:18:53.703Z,89.76
2018-01-10T10:21:21.359Z,88.96
2018-01-10T10:23:48.957Z,89.05
2018-01-10T10:26:16.586Z,89.19
2018-01-10T10:28:44.178Z,88.50
2018-01-10T10:31:11.798Z,88.24
2018-01-10T10:33:39.386Z,87.78
2018-01-10T10:36:06.997Z,87.45
2018-01-10T10:38:34.579Z,86.83
2018-01-10T10:41:02.269Z,86.55
2018-01-10T10:43:29.853Z,86.16
2018-01-10T10:45:57.466Z,85.89
2018-01-10T10:48:25.051Z,85.55
2018-01-10T10:50:52.757Z,85.83
2018-01-10T10:53:20.362Z,85.55
2018-01-10T10:55:47.966Z,85.89
2018-01-10T10:58:15.681Z,85.26
2018-01-10T11:00:43.294Z,84.66
2018-01-10T11:03:10.894Z,83.69
2018-01-10T11:05:38.524Z,82.76
2018-01-10T11:08:06.105Z,82.67
2018-01-10T11:10:33.729Z,82.92
2018-01-10T11:13:01.321Z,82.51
2018-01-10T11:15:28.940Z,82.66
2018-01-10T11:17:56.515Z,82.74
2018-01-10T11:20:24.143Z,82.28
2018-01-10T11:22:51.753Z,82.05
2018-01-10T11:25:19.378Z,82.21
2018-01-10T11:27:51.626Z,82.40
2018-01-10T11:30:19.249Z,81.29
2018-01-10T11:32:46.950Z,81.71
2018-01-10T11:35:14.578Z,81.55
2018-01-10T11:37:42.159Z,81.72
2018-01-10T11:40:09.782Z,82.32
2018-01-10T11:42:37.350Z,83.06
2018-01-10T11:45:05.084Z,82.59
2018-01-10T11:47:32.697Z,82.76
2018-01-10T11:50:00.315Z,82.08
2018-01-10T11:52:27.913Z,82.35
2018-01-10T11:54:55.563Z,82.21
2018-01-10T11:57:23.171Z,82.15
2018-01-10T11:59:50.759Z,82.04
2018-01-10T12:02:18.374Z,82.08
2018-01-10T12:04:45.973Z,81.78
2018-01-10T12:07:13.763Z,82.16
2018-01-10T12:09:41.386Z,82.44
2018-01-10T12:12:09.041Z,81.81
2018-01-10T12:14:36.622Z,82.19
2018-01-10T12:17:04.210Z,81.92
2018-01-10T12:19:31.877Z,82.12
2018-01-10T12:21:59.445Z,81.97
2018-01-10T12:24:27.063Z,81.99
2018-01-10T12:26:54.724Z,82.41
2018-01-10T12:29:22.310Z,82.41
2018-01-10T12:31:49.927Z,82.75
2018-01-10T12:34:17.543Z,82.40
2018-01-10T12:36:45.134Z,82.32
2018-01-10T12:39:12.848Z,82.32
2018-01-10T12:41:40.454Z,82.30
2018-01-10T12:44:08.071Z,82.14
2018-01-10T12:46:35.674Z,82.45
2018-01-10T12:49:03.300Z,82.25
2018-01-10T12:51:30.883Z,82.16
2018-01-10T12:53:58.507Z,82.15
2018-01-10T12:56:26.153Z,81.68
2018-01-10T12:58:53.775Z,81.77
2018-01-10T13:01:21.358Z,81.79
2018-01-10T13:03:48.979Z,81.54
2018-01-10T13:06:16.598Z,81.03
2018-01-10T13:08:44.190Z,81.24
2018-01-10T13:11:11.786Z,80.79
2018-01-10T13:13:39.531Z,81.15
2018-01-10T13:16:07.158Z,81.34
2018-01-10T13:18:34.747Z,80.91
2018-01-10T13:21:02.411Z,80.34
2018-01-10T13:23:30.047Z,79.39
2018-01-10T13:25:57.634Z,79.63
2018-01-10T13:28:25.333Z,80.24
2018-01-10T13:30:52.926Z,80.06
2018-01-10T13:33:20.593Z,79.31
2018-01-10T13:35:48.233Z,78.45
2018-01-10T13:38:15.867Z,76.52
2018-01-10T13:40:43.487Z,76.11
2018-01-10T13:43:11.119Z,75.59
2018-01-10T13:45:38.710Z,74.83
2018-01-10T13:48:06.444Z,73.38
2018-01-10T13:50:34.010Z,72.20
2018-01-10T13:53:01.619Z,74.08
2018-01-10T13:55:29.208Z,74.52
2018-01-10T13:57:56.830Z,73.39
2018-01-10T14:00:24.440Z,74.34
2018-01-10T14:02:52.071Z,75.71
2018-01-10T14:05:19.716Z,75.43
2018-01-10T14:07:47.730Z,76.03
2018-01-10T14:10:15.339Z,75.85
2018-01-10T14:12:42.997Z,76.27
2018-01-10T14:15:10.586Z,76.46
2018-01-10T14:17:38.207Z,76.18
2018-01-10T14:20:05.801Z,76.43
2018-01-10T14:22:33.442Z,76.48
2018-01-10T14:25:01.041Z,76.86
2018-01-10T14:27:28.697Z,77.06
2018-01-10T14:29:56.283Z,77.30
2018-01-10T14:32:23.919Z,77.05
2018-01-10T14:34:51.531Z,77.07
2018-01-10T14:37:19.119Z,76.76
2018-01-10T14:39:46.748Z,76.67
2018-01-10T14:42:14.367Z,76.54
2018-01-10T14:44:41.969Z,76.88
2018-01-10T14:47:09.658Z,77.07
2018-01-10T14:49:37.282Z,77.01
2018-01-10T14:52:05.087Z,76.60
2018-01-10T14:54:32.692Z,76.97
2018-01-10T14:57:00.344Z,77.43
2018-01-10T14:59:27.929Z,77.23
2018-01-10T15:01:55.527Z,77.39
2018-01-10T15:04:23.168Z,77.45
2018-01-10T15:06:50.809Z,77.80
2018-01-10T15:09:18.558Z,77.98
2018-01-10T15:11:46.149Z,78.11
2018-01-10T15:14:13.784Z,78.38
2018-01-10T15:16:41.379Z,78.67
2018-01-10T15:19:09.007Z,78.40
2018-01-10T15:21:36.605Z,78.37
2018-01-10T15:24:04.269Z,78.46
2018-01-10T15:26:31.890Z,78.48
2018-01-10T15:28:59.475Z,78.66
2018-01-10T15:31:27.246Z,78.69
2018-01-10T15:33:54.905Z,78.72
2018-01-10T15:36:22.534Z,79.00
2018-01-10T15:38:50.130Z,79.07
2018-01-10T15:41:17.784Z,78.67
2018-01-10T15:43:45.597Z,78.44
2018-01-10T15:46:13.226Z,78.49
2018-01-10T15:48:40.819Z,78.54
2018-01-10T15:51:08.454Z,78.48
2018-01-10T15:53:36.043Z,78.46
2018-01-10T15:56:03.669Z,78.47
2018-01-10T15:58:31.272Z,78.66
2018-01-10T16:00:58.966Z,78.89
2018-01-10T16:03:26.587Z,79.01
2018-01-10T16:05:54.231Z,78.81
2018-01-10T16:08:23.413Z,78.82
2018-01-10T16:10:51.039Z,78.86
2018-01-10T16:13:18.667Z,78.75
2018-01-10T16:15:46.259Z,78.97
2018-01-10T16:18:13.895Z,78.93
2018-01-10T16:20:41.490Z,78.78
2018-01-10T16:23:09.130Z,78.72
2018-01-10T16:25:36.738Z,78.60
2018-01-10T16:28:04.378Z,78.85
2018-01-10T16:30:31.982Z,79.09
2018-01-10T16:32:59.617Z,79.03
2018-01-10T16:35:27.216Z,78.92
2018-01-10T16:37:54.850Z,78.62
2018-01-10T16:40:22.468Z,78.94
2018-01-10T16:42:50.190Z,79.20
2018-01-10T16:45:17.814Z,79.25
2018-01-10T16:47:45.427Z,78.86
2018-01-10T16:50:13.023Z,78.79
2018-01-10T16:52:40.727Z,78.63
2018-01-10T16:55:08.334Z,78.37
2018-01-10T16:57:35.974Z,78.75
2018-01-10T17:00:03.576Z,78.97
2018-01-10T17:02:31.222Z,78.71
2018-01-10T17:04:58.826Z,77.88
2018-01-10T17:07:26.926Z,77.86
2018-01-10T17:09:54.675Z,78.12
2018-01-10T17:12:22.287Z,78.10
2018-01-10T17:14:49.869Z,77.95
2018-01-10T17:17:17.612Z,77.97
2018-01-10T17:19:45.173Z,77.97
2018-01-10T17:22:12.841Z,77.84
2018-01-10T17:24:40.462Z,77.98
2018-01-10T17:27:08.093Z,78.08
2018-01-10T17:29:35.814Z,78.04
2018-01-10T17:32:03.460Z,77.97
2018-01-10T17:34:31.062Z,78.24
2018-01-10T17:36:58.713Z,78.16
2018-01-10T17:39:26.353Z,78.29
2018-01-10T17:41:53.995Z,78.14
2018-01-10T17:44:21.610Z,78.25
2018-01-10T17:46:49.240Z,78.35
2018-01-10T17:49:16.850Z,78.30
2018-01-10T17:51:44.489Z,78.33
2018-01-10T17:54:12.269Z,78.46
2018-01-10T17:56:39.713Z,78.22
2018-01-10T17:59:07.343Z,77.92
2018-01-10T18:01:34.990Z,78.05
2018-01-10T18:04:02.594Z,78.25
2018-01-10T18:06:30.289Z,78.32
2018-01-10T18:08:57.852Z,78.42
2018-01-10T18:11:25.499Z,78.89
2018-01-10T18:13:53.114Z,79.05
2018-01-10T18:16:20.758Z,79.30
2018-01-10T18:18:48.350Z,78.83
2018-01-10T18:21:15.983Z,78.94
2018-01-10T18:23:43.610Z,78.89
2018-01-10T18:26:11.322Z,79.09
2018-01-10T18:28:38.966Z,79.14
2018-01-10T18:31:06.607Z,79.08
2018-01-10T18:33:34.230Z,79.52
2018-01-10T18:36:01.858Z,79.71
2018-01-10T18:38:29.487Z,79.61
2018-01-10T18:40:57.098Z,79.67
2018-01-10T18:43:24.709Z,79.29
2018-01-10T18:45:52.543Z,79.00
2018-01-10T18:48:20.182Z,78.92
2018-01-10T18:50:47.803Z,79.02
2018-01-10T18:53:15.476Z,79.46
2018-01-10T18:55:43.173Z,79.37
2018-01-10T18:58:10.763Z,79.61
2018-01-10T19:00:38.399Z,79.73
2018-01-10T19:03:06.014Z,79.87
2018-01-10T19:05:33.679Z,79.65
2018-01-10T19:08:01.305Z,79.97
2018-01-10T19:10:28.986Z,80.14
2018-01-10T19:12:56.622Z,80.63
2018-01-10T19:15:24.258Z,81.03
2018-01-10T19:17:51.847Z,81.73
2018-01-10T19:20:19.470Z,81.94
2018-01-10T19:22:47.078Z,82.07
2018-01-10T19:25:14.732Z,82.15
2018-01-10T19:27:42.350Z,82.21
2018-01-10T19:30:09.960Z,82.29
2018-01-10T19:32:37.627Z,82.96
2018-01-10T19:35:05.297Z,82.89
2018-01-10T19:37:32.894Z,83.08
2018-01-10T19:40:00.519Z,82.98
2018-01-10T19:42:28.108Z,82.85
2018-01-10T19:44:55.710Z,82.64
2018-01-10T19:47:23.396Z,82.50
2018-01-10T19:49:51.048Z,82.53
2018-01-10T19:52:18.694Z,82.72
2018-01-10T19:54:46.376Z,82.99
2018-01-10T19:57:13.963Z,82.80
2018-01-10T19:59:41.656Z,82.60
2018-01-10T20:10:52.390Z,82.75
2018-01-10T20:13:20.043Z,82.59
2018-01-10T20:15:47.695Z,82.90
2018-01-10T20:18:15.387Z,82.93
2018-01-10T20:20:43.014Z,83.00
2018-01-10T20:23:10.609Z,82.73
2018-01-10T20:25:38.268Z,82.68
2018-01-10T20:28:05.942Z,82.71
2018-01-10T20:30:33.607Z,82.92
2018-01-10T20:33:01.236Z,83.18
2018-01-10T20:35:28.868Z,83.36
2018-01-10T20:37:56.455Z,83.55
2018-01-10T20:40:24.074Z,83.80
2018-01-10T20:42:51.666Z,83.97
2018-01-10T20:45:19.305Z,83.96
2018-01-10T20:47:46.888Z,84.00
2018-01-10T20:50:14.537Z,84.27
2018-01-10T20:52:42.145Z,84.41
2018-01-10T20:55:09.760Z,84.50
2018-01-10T20:57:37.366Z,85.01
2018-01-10T21:00:04.953Z,85.57
2018-01-10T21:02:32.603Z,86.05
2018-01-10T21:05:00.213Z,86.46
2018-01-10T21:07:27.875Z,86.73
2018-01-10T21:09:55.530Z,87.09
2018-01-10T21:12:23.193Z,87.30
2018-01-10T21:14:50.790Z,87.52
2018-01-10T21:17:18.398Z,87.71
2018-01-10T21:19:45.994Z,87.86
2018-01-10T21:22:13.629Z,88.13
2018-01-10T21:24:41.257Z,88.20
2018-01-10T21:27:08.950Z,88.27
2018-01-10T21:29:36.554Z,88.30
2018-01-10T21:32:04.192Z,88.32
2018-01-10T21:34:31.772Z,88.38
2018-01-10T21:36:59.403Z,88.32
2018-01-10T21:39:27.079Z,88.49
2018-01-10T21:41:54.756Z,88.70
2018-01-10T21:44:22.407Z,88.65
2018-01-10T21:46:50.498Z,88.89
2018-01-10T21:49:21.135Z,89.09
2018-01-10T21:51:48.872Z,89.53
2018-01-10T21:54:16.475Z,89.69
2018-01-10T21:56:44.141Z,89.57
2018-01-10T21:59:11.781Z,89.41
2018-01-10T22:01:39.488Z,89.63
2018-01-10T22:04:07.061Z,90.10
2018-01-10T22:06:34.699Z,90.13
2018-01-10T22:09:02.285Z,90.43
2018-01-10T22:11:29.925Z,90.56
2018-01-10T22:13:57.531Z,90.85
2018-01-10T22:16:25.138Z,91.02
2018-01-10T22:18:52.749Z,90.92
2018-01-10T22:21:20.394Z,91.07
2018-01-10T22:23:48.007Z,90.92
2018-01-10T22:26:15.711Z,90.92
2018-01-10T22:28:43.303Z,91.23
2018-01-10T22:31:10.954Z,91.51
2018-01-10T22:33:38.663Z,91.96
2018-01-10T22:36:06.269Z,92.17
2018-01-10T22:38:33.871Z,92.68
2018-01-10T22:41:01.528Z,92.95
2018-01-10T22:43:29.121Z,93.08
2018-01-10T22:45:56.749Z,93.27
2018-01-10T22:48:24.334Z,93.43
2018-01-10T22:50:51.971Z,93.56
2018-01-10T22:53:19.578Z,93.85
2018-01-10T22:55:47.301Z,94.07
2018-01-10T22:58:14.903Z,94.27
2018-01-10T23:00:42.534Z,94.26
2018-01-10T23:03:10.267Z,94.39
2018-01-10T23:05:37.866Z,94.44
2018-01-10T23:08:05.528Z,94.49
2018-01-10T23:10:33.164Z,94.62
2018-01-10T23:13:00.899Z,94.64
2018-01-10T23:15:28.546Z,94.55
2018-01-10T23:17:56.275Z,94.35
2018-01-10T23:20:23.885Z,94.10
2018-01-10T23:22:51.479Z,94.04
2018-01-10T23:25:19.215Z,94.15
2018-01-10T23:27:46.914Z,94.27
2018-01-10T23:30:14.710Z,94.64
2018-01-10T23:32:42.312Z,95.01
2018-01-10T23:35:09.936Z,95.01
2018-01-10T23:37:37.502Z,95.04
2018-01-10T23:40:05.118Z,95.29
2018-01-10T23:42:32.714Z,95.32
2018-01-10T23:45:00.358Z,95.34
2018-01-10T23:47:27.945Z,95.22
2018-01-10T23:49:55.577Z,95.01
2018-01-10T23:52:23.362Z,95.02
2018-01-10T23:54:51.042Z,95.06
2018-01-10T23:57:18.639Z,95.12
2018-01-10T23:59:46.254Z,95.27
